Budapest, Hungary

4:55 PM CEST on October 23, 2014 (GMT +0200)
IBUDAPES25 | Change Station
CLOSE
Current Station
Personal Weather Station
Location: Budapest, VIII. Jozsefvaros, Budapest
Elevation: 374 ft
Nearby Weather Stations

Elev 374 ft 47.49 °N, 19.07 °E | Updated 2 seconds ago

Overcast
Overcast
52.5 °F
Feels Like 52.5 °F
N
6.2
Wind Variable Wind from NNW
Gusts 6.2 mph

Today
High -- | Low -- °F
--% Chance of Precip.
Yesterday
High -- | Low -- °F
Precip. -- in
7:13 AM 5:41 PM
Waning Crescent, 0% visible
Pressure 29.71 in
Visibility 6.2 miles
Clouds Few 1000 ft
Overcast 1900 ft
Dew Point 48 °F
Humidity 85%
Rainfall 0.00 in
Snow Depth Not available.
UV 0.0 out of 12
Pollen Not available.
Air Quality Not available.
Flu Activity Not available.
METAR LHBP 231430Z 33009KT 9999 FEW010 OVC019 10/09 Q1006 NOSIG

More Conditions Fewer Conditions

Pressure 29.71 in
Visibility 6.2 miles
Clouds Few 1000 ft
Overcast 1900 ft
Dew Point 48 °F
Humidity 85%
Rainfall 0.00 in
Snow Depth Not available.
UV 0.0 out of 12
Pollen Not available.
Air Quality Not available.
Flu Activity Not available.
METAR LHBP 231430Z 33009KT 9999 FEW010 OVC019 10/09 Q1006 NOSIG

More Conditions Fewer Conditions

10-Day Weather Forecast

Almanac

Astronomy

Oct. 23, 2014 Rise Set
Actual Time 7:13 AM CEST 5:41 PM CEST
Civil Twilight 6:42 AM CEST 6:13 PM CEST
Nautical Twilight 6:06 AM CEST 6:48 PM CEST
Astronomical Twilight 5:30 AM CEST 7:24 PM CEST
Moon 6:33 AM CEST 5:33 PM CEST
Length of Visible Light 11h 30m
Length of Day
10h 28m
Tomorrow will be 3m 13s shorter.
Waning Crescent, 0% of the Moon is Illuminated
Today
Waning Crescent
Oct 23
New
Oct 30
First Quarter
Nov 6
Full
Nov 14
Last Quarter

Today's Extremes

Country Highs Country Lows

Community

WunderPhotos

Upload Photos

1,764,272 photos uploaded!

WunderBlogs® & News

Nearby

Snow Depth

Not available.

Earthquake Activity

City Distance Mag. Time & Date
No recent earthquake activity has been reported nearby.
Minimum magnitude displayed is 2.5.

Coastal Water Temperatures

Place Temperature
No Stations Reporting

Nearby Weather Stations